sensor_id;sensor_type;location;lat;lon;timestamp;P1;durP1;ratioP1;P2;durP2;ratioP2
12222;SDS011;6174;49.058;8.524;2023-04-16T06:00:35;12.00;;;10.80;;
12222;SDS011;6174;49.058;8.524;2023-04-16T06:03:01;11.63;;;10.43;;
12222;SDS011;6174;49.058;8.524;2023-04-16T06:05:28;12.23;;;10.93;;
12222;SDS011;6174;49.058;8.524;2023-04-16T06:07:55;11.83;;;10.63;;
12222;SDS011;6174;49.058;8.524;2023-04-16T06:10:22;12.83;;;10.97;;
12222;SDS011;6174;49.058;8.524;2023-04-16T06:12:49;13.17;;;11.40;;
12222;SDS011;6174;49.058;8.524;2023-04-16T06:15:16;12.83;;;10.77;;
12222;SDS011;6174;49.058;8.524;2023-04-16T06:17:44;11.57;;;10.30;;
12222;SDS011;6174;49.058;8.524;2023-04-16T06:20:11;12.40;;;11.10;;
12222;SDS011;6174;49.058;8.524;2023-04-16T06:22:38;12.47;;;11.17;;
12222;SDS011;6174;49.058;8.524;2023-04-16T06:25:05;12.57;;;11.27;;
12222;SDS011;6174;49.058;8.524;2023-04-16T06:27:32;12.83;;;11.50;;
12222;SDS011;6174;49.058;8.524;2023-04-16T06:29:59;13.07;;;11.77;;
12222;SDS011;6174;49.058;8.524;2023-04-16T06:32:25;11.40;;;10.20;;
12222;SDS011;6174;49.058;8.524;2023-04-16T06:34:53;12.00;;;10.80;;
12222;SDS011;6174;49.058;8.524;2023-04-16T06:37:22;12.07;;;10.87;;
12222;SDS011;6174;49.058;8.524;2023-04-16T06:39:49;12.60;;;10.73;;
12222;SDS011;6174;49.058;8.524;2023-04-16T06:42:16;12.10;;;10.90;;
12222;SDS011;6174;49.058;8.524;2023-04-16T06:44:43;11.50;;;10.40;;
12222;SDS011;6174;49.058;8.524;2023-04-16T06:47:09;11.50;;;10.30;;
12222;SDS011;6174;49.058;8.524;2023-04-16T06:49:36;12.10;;;10.07;;
12222;SDS011;6174;49.058;8.524;2023-04-16T06:52:05;11.03;;;9.93;;
12222;SDS011;6174;49.058;8.524;2023-04-16T06:54:32;11.23;;;10.13;;
12222;SDS011;6174;49.058;8.524;2023-04-16T06:56:59;11.07;;;9.90;;
12222;SDS011;6174;49.058;8.524;2023-04-16T06:59:26;11.63;;;10.53;;
12222;SDS011;6174;49.058;8.524;2023-04-16T07:01:52;11.70;;;10.50;;
12222;SDS011;6174;49.058;8.524;2023-04-16T07:04:19;10.77;;;9.67;;
12222;SDS011;6174;49.058;8.524;2023-04-16T07:06:46;10.67;;;9.67;;
12222;SDS011;6174;49.058;8.524;2023-04-16T07:09:14;10.67;;;9.67;;
12222;SDS011;6174;49.058;8.524;2023-04-16T07:11:42;10.70;;;9.60;;
12222;SDS011;6174;49.058;8.524;2023-04-16T07:14:09;10.80;;;9.70;;
12222;SDS011;6174;49.058;8.524;2023-04-16T07:16:36;10.60;;;8.93;;
12222;SDS011;6174;49.058;8.524;2023-04-16T07:19:03;10.90;;;9.43;;
12222;SDS011;6174;49.058;8.524;2023-04-16T07:21:30;10.00;;;9.00;;
12222;SDS011;6174;49.058;8.524;2023-04-16T07:23:56;11.53;;;8.53;;
12222;SDS011;6174;49.058;8.524;2023-04-16T07:26:24;10.27;;;9.27;;
12222;SDS011;6174;49.058;8.524;2023-04-16T07:28:51;9.33;;;8.43;;
12222;SDS011;6174;49.058;8.524;2023-04-16T07:31:18;10.40;;;8.10;;
12222;SDS011;6174;49.058;8.524;2023-04-16T07:33:45;9.17;;;8.27;;
12222;SDS011;6174;49.058;8.524;2023-04-16T07:36:11;9.50;;;8.50;;
12222;SDS011;6174;49.058;8.524;2023-04-16T07:38:38;9.97;;;8.97;;
12222;SDS011;6174;49.058;8.524;2023-04-16T07:41:05;9.87;;;8.97;;
12222;SDS011;6174;49.058;8.524;2023-04-16T07:43:33;9.33;;;8.43;;
12222;SDS011;6174;49.058;8.524;2023-04-16T07:46:00;9.33;;;8.40;;
12222;SDS011;6174;49.058;8.524;2023-04-16T07:48:26;10.00;;;9.00;;
12222;SDS011;6174;49.058;8.524;2023-04-16T07:50:53;9.23;;;8.33;;
12222;SDS011;6174;49.058;8.524;2023-04-16T07:53:20;9.30;;;8.40;;
12222;SDS011;6174;49.058;8.524;2023-04-16T07:55:47;8.93;;;7.90;;
12222;SDS011;6174;49.058;8.524;2023-04-16T07:58:13;9.93;;;8.53;;
12222;SDS011;6174;49.058;8.524;2023-04-16T08:00:41;9.13;;;8.23;;
12222;SDS011;6174;49.058;8.524;2023-04-16T08:03:09;8.73;;;7.83;;
12222;SDS011;6174;49.058;8.524;2023-04-16T08:05:36;8.57;;;7.67;;
12222;SDS011;6174;49.058;8.524;2023-04-16T08:08:03;8.93;;;8.10;;
12222;SDS011;6174;49.058;8.524;2023-04-16T08:10:30;8.77;;;7.87;;
12222;SDS011;6174;49.058;8.524;2023-04-16T08:12:56;9.03;;;8.10;;
12222;SDS011;6174;49.058;8.524;2023-04-16T08:15:25;8.90;;;8.00;;
12222;SDS011;6174;49.058;8.524;2023-04-16T08:17:53;8.37;;;7.57;;
12222;SDS011;6174;49.058;8.524;2023-04-16T08:20:20;8.40;;;7.60;;
12222;SDS011;6174;49.058;8.524;2023-04-16T08:22:47;9.27;;;8.37;;
12222;SDS011;6174;49.058;8.524;2023-04-16T08:25:14;9.03;;;8.23;;
12222;SDS011;6174;49.058;8.524;2023-04-16T08:27:41;9.83;;;8.77;;
12222;SDS011;6174;49.058;8.524;2023-04-16T08:30:07;9.23;;;8.33;;
12222;SDS011;6174;49.058;8.524;2023-04-16T08:32:34;9.03;;;8.00;;
12222;SDS011;6174;49.058;8.524;2023-04-16T08:35:03;9.17;;;8.27;;
12222;SDS011;6174;49.058;8.524;2023-04-16T08:37:30;8.87;;;7.93;;
12222;SDS011;6174;49.058;8.524;2023-04-16T08:39:57;8.47;;;7.67;;
12222;SDS011;6174;49.058;8.524;2023-04-16T08:42:27;9.47;;;8.47;;
12222;SDS011;6174;49.058;8.524;2023-04-16T08:44:58;8.67;;;7.87;;
12222;SDS011;6174;49.058;8.524;2023-04-16T08:47:33;9.63;;;8.03;;
12222;SDS011;6174;49.058;8.524;2023-04-16T08:50:03;8.73;;;7.83;;
12222;SDS011;6174;49.058;8.524;2023-04-16T08:52:31;9.23;;;8.33;;
12222;SDS011;6174;49.058;8.524;2023-04-16T08:55:03;9.10;;;8.10;;
12222;SDS011;6174;49.058;8.524;2023-04-16T08:57:36;8.80;;;7.97;;
12222;SDS011;6174;49.058;8.524;2023-04-16T09:00:08;9.20;;;8.27;;
12222;SDS011;6174;49.058;8.524;2023-04-16T09:02:37;9.10;;;8.20;;
12222;SDS011;6174;49.058;8.524;2023-04-16T09:05:06;8.77;;;7.90;;
12222;SDS011;6174;49.058;8.524;2023-04-16T09:07:34;8.77;;;7.97;;
12222;SDS011;6174;49.058;8.524;2023-04-16T09:10:02;8.50;;;7.70;;
12222;SDS011;6174;49.058;8.524;2023-04-16T09:12:32;8.03;;;7.30;;
12222;SDS011;6174;49.058;8.524;2023-04-16T09:15:00;8.97;;;8.17;;
12222;SDS011;6174;49.058;8.524;2023-04-16T09:17:28;8.07;;;7.37;;
12222;SDS011;6174;49.058;8.524;2023-04-16T09:19:56;8.97;;;8.03;;
12222;SDS011;6174;49.058;8.524;2023-04-16T09:22:24;8.60;;;7.80;;
12222;SDS011;6174;49.058;8.524;2023-04-16T09:24:51;8.80;;;7.77;;
12222;SDS011;6174;49.058;8.524;2023-04-16T09:27:17;8.90;;;8.00;;
12222;SDS011;6174;49.058;8.524;2023-04-16T09:29:44;8.53;;;7.53;;
12222;SDS011;6174;49.058;8.524;2023-04-16T09:32:11;8.80;;;7.90;;
12222;SDS011;6174;49.058;8.524;2023-04-16T09:37:21;8.80;;;7.60;;
12222;SDS011;6174;49.058;8.524;2023-04-16T09:39:53;8.40;;;7.60;;
12222;SDS011;6174;49.058;8.524;2023-04-16T09:42:22;8.77;;;7.87;;
12222;SDS011;6174;49.058;8.524;2023-04-16T09:44:51;8.67;;;7.77;;
12222;SDS011;6174;49.058;8.524;2023-04-16T09:47:18;9.20;;;7.83;;
12222;SDS011;6174;49.058;8.524;2023-04-16T09:49:45;7.77;;;7.07;;
12222;SDS011;6174;49.058;8.524;2023-04-16T09:52:13;8.13;;;7.33;;
12222;SDS011;6174;49.058;8.524;2023-04-16T09:54:44;8.23;;;7.43;;
12222;SDS011;6174;49.058;8.524;2023-04-16T09:57:13;8.00;;;7.20;;
12222;SDS011;6174;49.058;8.524;2023-04-16T09:59:44;8.07;;;7.33;;
12222;SDS011;6174;49.058;8.524;2023-04-16T10:02:11;8.37;;;7.53;;
12222;SDS011;6174;49.058;8.524;2023-04-16T10:04:44;8.40;;;7.60;;
12222;SDS011;6174;49.058;8.524;2023-04-16T10:07:12;8.67;;;7.87;;
12222;SDS011;6174;49.058;8.524;2023-04-16T10:09:39;7.67;;;6.97;;
12222;SDS011;6174;49.058;8.524;2023-04-16T10:12:06;8.07;;;7.33;;
12222;SDS011;6174;49.058;8.524;2023-04-16T10:14:35;7.47;;;6.70;;
12222;SDS011;6174;49.058;8.524;2023-04-16T10:17:02;11.57;;;10.50;;
12222;SDS011;6174;49.058;8.524;2023-04-16T10:19:30;7.67;;;6.87;;
12222;SDS011;6174;49.058;8.524;2023-04-16T10:21:57;6.77;;;6.17;;
12222;SDS011;6174;49.058;8.524;2023-04-16T10:24:24;6.97;;;6.37;;
12222;SDS011;6174;49.058;8.524;2023-04-16T10:26:51;7.67;;;6.97;;
12222;SDS011;6174;49.058;8.524;2023-04-16T10:29:18;7.00;;;6.30;;
12222;SDS011;6174;49.058;8.524;2023-04-16T10:31:47;7.57;;;6.87;;
12222;SDS011;6174;49.058;8.524;2023-04-16T10:34:14;7.90;;;7.10;;
12222;SDS011;6174;49.058;8.524;2023-04-16T10:36:41;7.87;;;7.07;;
12222;SDS011;6174;49.058;8.524;2023-04-16T10:39:09;8.43;;;7.10;;
12222;SDS011;6174;49.058;8.524;2023-04-16T10:41:38;7.60;;;6.90;;
12222;SDS011;6174;49.058;8.524;2023-04-16T10:44:05;7.53;;;6.83;;
12222;SDS011;6174;49.058;8.524;2023-04-16T10:46:35;6.90;;;6.30;;
12222;SDS011;6174;49.058;8.524;2023-04-16T10:49:12;7.93;;;7.13;;
12222;SDS011;6174;49.058;8.524;2023-04-16T10:51:40;8.80;;;7.17;;
12222;SDS011;6174;49.058;8.524;2023-04-16T10:54:21;7.90;;;7.20;;
12222;SDS011;6174;49.058;8.524;2023-04-16T10:56:49;7.90;;;7.17;;
12222;SDS011;6174;49.058;8.524;2023-04-16T10:59:17;8.67;;;7.83;;
12222;SDS011;6174;49.058;8.524;2023-04-16T11:01:45;16.07;;;14.67;;
12222;SDS011;6174;49.058;8.524;2023-04-16T11:04:26;9.10;;;8.20;;
12222;SDS011;6174;49.058;8.524;2023-04-16T11:07:04;10.97;;;8.30;;
12222;SDS011;6174;49.058;8.524;2023-04-16T11:09:41;8.00;;;7.23;;
12222;SDS011;6174;49.058;8.524;2023-04-16T11:12:10;8.53;;;7.73;;
12222;SDS011;6174;49.058;8.524;2023-04-16T11:14:39;8.53;;;7.73;;
12222;SDS011;6174;49.058;8.524;2023-04-16T11:17:06;8.43;;;7.60;;
12222;SDS011;6174;49.058;8.524;2023-04-16T11:19:35;9.00;;;7.30;;
12222;SDS011;6174;49.058;8.524;2023-04-16T11:22:02;7.80;;;7.10;;
12222;SDS011;6174;49.058;8.524;2023-04-16T11:24:29;9.10;;;7.60;;
12222;SDS011;6174;49.058;8.524;2023-04-16T11:26:56;8.80;;;7.90;;
12222;SDS011;6174;49.058;8.524;2023-04-16T11:29:23;8.23;;;7.43;;
12222;SDS011;6174;49.058;8.524;2023-04-16T11:31:50;8.60;;;7.80;;
12222;SDS011;6174;49.058;8.524;2023-04-16T11:34:17;8.67;;;7.87;;
12222;SDS011;6174;49.058;8.524;2023-04-16T11:36:46;8.90;;;8.00;;
12222;SDS011;6174;49.058;8.524;2023-04-16T11:39:15;9.40;;;8.03;;
12222;SDS011;6174;49.058;8.524;2023-04-16T11:41:42;10.53;;;9.37;;
12222;SDS011;6174;49.058;8.524;2023-04-16T11:44:16;9.23;;;8.30;;
12222;SDS011;6174;49.058;8.524;2023-04-16T11:46:44;9.47;;;8.57;;
12222;SDS011;6174;49.058;8.524;2023-04-16T11:49:11;9.70;;;8.80;;
12222;SDS011;6174;49.058;8.524;2023-04-16T11:51:38;9.30;;;8.30;;
12222;SDS011;6174;49.058;8.524;2023-04-16T11:54:07;9.43;;;8.43;;
12222;SDS011;6174;49.058;8.524;2023-04-16T11:56:34;9.03;;;8.10;;
12222;SDS011;6174;49.058;8.524;2023-04-16T11:59:08;10.17;;;9.17;;
12222;SDS011;6174;49.058;8.524;2023-04-16T12:01:36;9.93;;;9.03;;
12222;SDS011;6174;49.058;8.524;2023-04-16T12:04:04;11.40;;;9.57;;
12222;SDS011;6174;49.058;8.524;2023-04-16T12:06:31;11.27;;;9.00;;
12222;SDS011;6174;49.058;8.524;2023-04-16T12:08:58;10.37;;;9.37;;
12222;SDS011;6174;49.058;8.524;2023-04-16T12:11:39;10.63;;;9.53;;
12222;SDS011;6174;49.058;8.524;2023-04-16T12:14:06;9.57;;;8.57;;
12222;SDS011;6174;49.058;8.524;2023-04-16T12:16:33;9.30;;;8.27;;
12222;SDS011;6174;49.058;8.524;2023-04-16T12:19:01;9.40;;;8.50;;
12222;SDS011;6174;49.058;8.524;2023-04-16T12:21:35;10.23;;;8.93;;
12222;SDS011;6174;49.058;8.524;2023-04-16T12:24:03;9.33;;;8.30;;
12222;SDS011;6174;49.058;8.524;2023-04-16T12:26:41;10.43;;;8.87;;
12222;SDS011;6174;49.058;8.524;2023-04-16T12:29:17;11.07;;;9.40;;
12222;SDS011;6174;49.058;8.524;2023-04-16T12:31:45;9.33;;;8.33;;
12222;SDS011;6174;49.058;8.524;2023-04-16T12:34:12;9.60;;;8.60;;
12222;SDS011;6174;49.058;8.524;2023-04-16T12:36:40;8.63;;;7.73;;
12222;SDS011;6174;49.058;8.524;2023-04-16T12:39:07;9.70;;;8.70;;
12222;SDS011;6174;49.058;8.524;2023-04-16T12:41:35;9.37;;;8.27;;
12222;SDS011;6174;49.058;8.524;2023-04-16T12:44:07;10.37;;;8.23;;
12222;SDS011;6174;49.058;8.524;2023-04-16T12:46:37;9.07;;;8.17;;
12222;SDS011;6174;49.058;8.524;2023-04-16T12:49:04;8.97;;;8.10;;
12222;SDS011;6174;49.058;8.524;2023-04-16T12:51:31;11.27;;;10.07;;
12222;SDS011;6174;49.058;8.524;2023-04-16T12:53:58;8.53;;;7.63;;
12222;SDS011;6174;49.058;8.524;2023-04-16T12:56:25;9.00;;;8.07;;
12222;SDS011;6174;49.058;8.524;2023-04-16T12:58:52;10.17;;;8.83;;
12222;SDS011;6174;49.058;8.524;2023-04-16T13:01:20;9.40;;;8.40;;
12222;SDS011;6174;49.058;8.524;2023-04-16T13:03:48;9.47;;;8.57;;
12222;SDS011;6174;49.058;8.524;2023-04-16T13:06:15;9.47;;;8.57;;
12222;SDS011;6174;49.058;8.524;2023-04-16T13:08:43;9.53;;;8.50;;
12222;SDS011;6174;49.058;8.524;2023-04-16T13:11:10;12.20;;;10.37;;
12222;SDS011;6174;49.058;8.524;2023-04-16T13:13:37;10.83;;;9.73;;
12222;SDS011;6174;49.058;8.524;2023-04-16T13:16:04;12.40;;;9.60;;
12222;SDS011;6174;49.058;8.524;2023-04-16T13:18:34;8.60;;;7.70;;
12222;SDS011;6174;49.058;8.524;2023-04-16T13:21:01;9.27;;;8.33;;
12222;SDS011;6174;49.058;8.524;2023-04-16T13:23:29;9.60;;;7.60;;
12222;SDS011;6174;49.058;8.524;2023-04-16T13:25:55;9.53;;;8.60;;
12222;SDS011;6174;49.058;8.524;2023-04-16T13:28:22;9.93;;;8.97;;
12222;SDS011;6174;49.058;8.524;2023-04-16T13:30:49;32.60;;;24.90;;
12222;SDS011;6174;49.058;8.524;2023-04-16T13:33:16;30.90;;;25.80;;
12222;SDS011;6174;49.058;8.524;2023-04-16T13:35:44;12.90;;;11.70;;
12222;SDS011;6174;49.058;8.524;2023-04-16T13:38:11;11.17;;;10.07;;
12222;SDS011;6174;49.058;8.524;2023-04-16T13:40:38;12.90;;;11.60;;
12222;SDS011;6174;49.058;8.524;2023-04-16T13:43:05;20.73;;;18.93;;
12222;SDS011;6174;49.058;8.524;2023-04-16T13:45:32;17.07;;;15.40;;
12222;SDS011;6174;49.058;8.524;2023-04-16T13:47:58;14.77;;;12.97;;
12222;SDS011;6174;49.058;8.524;2023-04-16T13:50:25;20.70;;;18.70;;
12222;SDS011;6174;49.058;8.524;2023-04-16T13:52:53;27.37;;;24.77;;
12222;SDS011;6174;49.058;8.524;2023-04-16T13:55:20;19.53;;;17.60;;
12222;SDS011;6174;49.058;8.524;2023-04-16T13:57:47;26.53;;;23.77;;
12222;SDS011;6174;49.058;8.524;2023-04-16T14:00:16;19.60;;;17.53;;
12222;SDS011;6174;49.058;8.524;2023-04-16T14:02:43;17.50;;;15.13;;
12222;SDS011;6174;49.058;8.524;2023-04-16T14:05:12;20.43;;;18.37;;
12222;SDS011;6174;49.058;8.524;2023-04-16T14:07:39;22.70;;;20.40;;
12222;SDS011;6174;49.058;8.524;2023-04-16T14:10:08;12.87;;;11.50;;
12222;SDS011;6174;49.058;8.524;2023-04-16T14:12:35;18.17;;;16.40;;
12222;SDS011;6174;49.058;8.524;2023-04-16T14:15:03;14.53;;;12.97;;
12222;SDS011;6174;49.058;8.524;2023-04-16T14:17:31;12.60;;;10.50;;
12222;SDS011;6174;49.058;8.524;2023-04-16T14:19:58;11.87;;;10.67;;
12222;SDS011;6174;49.058;8.524;2023-04-16T14:22:24;11.03;;;9.83;;
12222;SDS011;6174;49.058;8.524;2023-04-16T14:24:51;10.83;;;8.53;;
12222;SDS011;6174;49.058;8.524;2023-04-16T14:27:19;11.90;;;10.70;;
12222;SDS011;6174;49.058;8.524;2023-04-16T14:29:46;10.70;;;9.60;;
12222;SDS011;6174;49.058;8.524;2023-04-16T14:32:12;13.23;;;11.80;;
12222;SDS011;6174;49.058;8.524;2023-04-16T14:34:39;11.70;;;9.63;;
12222;SDS011;6174;49.058;8.524;2023-04-16T14:37:06;10.40;;;9.40;;
12222;SDS011;6174;49.058;8.524;2023-04-16T14:39:33;12.87;;;10.30;;
12222;SDS011;6174;49.058;8.524;2023-04-16T14:42:00;10.83;;;9.73;;
12222;SDS011;6174;49.058;8.524;2023-04-16T14:44:28;13.13;;;10.53;;
12222;SDS011;6174;49.058;8.524;2023-04-16T14:46:55;11.67;;;10.30;;
12222;SDS011;6174;49.058;8.524;2023-04-16T14:49:22;12.67;;;10.37;;
12222;SDS011;6174;49.058;8.524;2023-04-16T14:51:49;11.30;;;10.03;;
12222;SDS011;6174;49.058;8.524;2023-04-16T14:54:16;11.23;;;10.03;;
12222;SDS011;6174;49.058;8.524;2023-04-16T14:56:43;13.83;;;10.77;;
12222;SDS011;6174;49.058;8.524;2023-04-16T14:59:10;12.20;;;10.37;;
12222;SDS011;6174;49.058;8.524;2023-04-16T15:01:38;12.57;;;10.13;;
12222;SDS011;6174;49.058;8.524;2023-04-16T15:04:05;12.40;;;10.80;;
12222;SDS011;6174;49.058;8.524;2023-04-16T15:06:33;13.10;;;10.90;;
12222;SDS011;6174;49.058;8.524;2023-04-16T15:09:00;13.27;;;11.17;;
12222;SDS011;6174;49.058;8.524;2023-04-16T15:11:27;12.77;;;10.90;;
12222;SDS011;6174;49.058;8.524;2023-04-16T15:13:54;12.50;;;11.13;;
12222;SDS011;6174;49.058;8.524;2023-04-16T15:16:21;12.93;;;10.73;;
12222;SDS011;6174;49.058;8.524;2023-04-16T15:18:49;14.23;;;11.87;;
12222;SDS011;6174;49.058;8.524;2023-04-16T15:21:15;15.13;;;12.27;;
12222;SDS011;6174;49.058;8.524;2023-04-16T15:23:42;13.87;;;11.97;;
12222;SDS011;6174;49.058;8.524;2023-04-16T15:26:09;15.73;;;12.77;;
12222;SDS011;6174;49.058;8.524;2023-04-16T15:28:36;17.10;;;13.40;;
12222;SDS011;6174;49.058;8.524;2023-04-16T15:31:02;14.97;;;13.33;;
12222;SDS011;6174;49.058;8.524;2023-04-16T15:33:29;17.00;;;14.10;;
12222;SDS011;6174;49.058;8.524;2023-04-16T15:35:57;17.60;;;13.63;;
12222;SDS011;6174;49.058;8.524;2023-04-16T15:38:24;17.90;;;14.60;;
12222;SDS011;6174;49.058;8.524;2023-04-16T15:40:53;20.87;;;16.17;;
12222;SDS011;6174;49.058;8.524;2023-04-16T15:43:24;18.43;;;15.70;;
12222;SDS011;6174;49.058;8.524;2023-04-16T15:45:53;20.23;;;16.53;;
12222;SDS011;6174;49.058;8.524;2023-04-16T15:48:21;17.83;;;15.53;;
12222;SDS011;6174;49.058;8.524;2023-04-16T15:50:48;20.40;;;15.57;;
12222;SDS011;6174;49.058;8.524;2023-04-16T15:53:17;18.93;;;16.80;;
12222;SDS011;6174;49.058;8.524;2023-04-16T15:55:44;21.93;;;18.30;;
12222;SDS011;6174;49.058;8.524;2023-04-16T15:58:11;21.07;;;17.13;;
12222;SDS011;6174;49.058;8.524;2023-04-16T16:00:38;21.27;;;17.57;;
12222;SDS011;6174;49.058;8.524;2023-04-16T16:03:04;21.87;;;17.90;;
12222;SDS011;6174;49.058;8.524;2023-04-16T16:05:31;21.57;;;18.70;;
12222;SDS011;6174;49.058;8.524;2023-04-16T16:07:58;22.90;;;17.77;;
12222;SDS011;6174;49.058;8.524;2023-04-16T16:10:27;21.73;;;18.23;;
12222;SDS011;6174;49.058;8.524;2023-04-16T16:12:53;23.23;;;18.13;;
12222;SDS011;6174;49.058;8.524;2023-04-16T16:15:21;20.57;;;17.23;;
12222;SDS011;6174;49.058;8.524;2023-04-16T16:17:48;22.33;;;19.00;;
12222;SDS011;6174;49.058;8.524;2023-04-16T16:20:16;19.90;;;17.80;;
12222;SDS011;6174;49.058;8.524;2023-04-16T16:22:43;21.97;;;17.97;;
12222;SDS011;6174;49.058;8.524;2023-04-16T16:25:12;20.63;;;17.67;;
12222;SDS011;6174;49.058;8.524;2023-04-16T16:27:40;22.73;;;18.50;;
12222;SDS011;6174;49.058;8.524;2023-04-16T16:30:07;19.80;;;17.23;;
12222;SDS011;6174;49.058;8.524;2023-04-16T16:32:34;21.17;;;17.87;;
12222;SDS011;6174;49.058;8.524;2023-04-16T16:35:05;21.63;;;18.40;;
12222;SDS011;6174;49.058;8.524;2023-04-16T16:37:32;23.40;;;19.30;;
12222;SDS011;6174;49.058;8.524;2023-04-16T16:39:59;22.03;;;18.63;;
12222;SDS011;6174;49.058;8.524;2023-04-16T16:42:26;20.40;;;18.03;;
12222;SDS011;6174;49.058;8.524;2023-04-16T16:44:54;23.00;;;19.17;;
12222;SDS011;6174;49.058;8.524;2023-04-16T16:47:21;23.57;;;19.07;;
12222;SDS011;6174;49.058;8.524;2023-04-16T16:49:48;23.63;;;20.17;;
12222;SDS011;6174;49.058;8.524;2023-04-16T16:52:15;24.70;;;21.17;;
12222;SDS011;6174;49.058;8.524;2023-04-16T16:54:42;23.70;;;20.23;;
12222;SDS011;6174;49.058;8.524;2023-04-16T16:57:09;23.23;;;20.77;;
12222;SDS011;6174;49.058;8.524;2023-04-16T16:59:36;24.87;;;22.10;;
12222;SDS011;6174;49.058;8.524;2023-04-16T17:02:05;28.20;;;24.20;;
12222;SDS011;6174;49.058;8.524;2023-04-16T17:04:32;26.57;;;22.87;;
12222;SDS011;6174;49.058;8.524;2023-04-16T17:06:59;23.50;;;20.10;;
12222;SDS011;6174;49.058;8.524;2023-04-16T17:09:25;22.10;;;19.60;;
12222;SDS011;6174;49.058;8.524;2023-04-16T17:11:52;21.67;;;19.30;;
12222;SDS011;6174;49.058;8.524;2023-04-16T17:14:19;21.90;;;19.17;;
12222;SDS011;6174;49.058;8.524;2023-04-16T17:16:46;22.77;;;19.10;;
12222;SDS011;6174;49.058;8.524;2023-04-16T17:19:15;23.27;;;20.77;;
12222;SDS011;6174;49.058;8.524;2023-04-16T17:21:43;25.50;;;22.37;;
12222;SDS011;6174;49.058;8.524;2023-04-16T17:24:10;26.27;;;22.20;;
12222;SDS011;6174;49.058;8.524;2023-04-16T17:26:36;36.10;;;31.33;;
12222;SDS011;6174;49.058;8.524;2023-04-16T17:29:04;30.77;;;25.93;;
12222;SDS011;6174;49.058;8.524;2023-04-16T17:31:31;28.43;;;23.90;;
12222;SDS011;6174;49.058;8.524;2023-04-16T17:33:58;26.87;;;22.77;;
12222;SDS011;6174;49.058;8.524;2023-04-16T17:36:26;23.87;;;20.00;;
12222;SDS011;6174;49.058;8.524;2023-04-16T17:38:53;22.50;;;19.03;;
12222;SDS011;6174;49.058;8.524;2023-04-16T17:41:20;21.90;;;18.97;;
12222;SDS011;6174;49.058;8.524;2023-04-16T17:43:47;22.00;;;18.17;;
12222;SDS011;6174;49.058;8.524;2023-04-16T17:46:15;22.60;;;19.43;;
12222;SDS011;6174;49.058;8.524;2023-04-16T17:48:42;23.47;;;18.67;;
12222;SDS011;6174;49.058;8.524;2023-04-16T17:51:09;25.20;;;19.93;;
12222;SDS011;6174;49.058;8.524;2023-04-16T17:53:37;24.17;;;20.03;;
12222;SDS011;6174;49.058;8.524;2023-04-16T17:56:06;25.17;;;20.67;;
12222;SDS011;6174;49.058;8.524;2023-04-16T17:58:33;26.03;;;21.97;;
12222;SDS011;6174;49.058;8.524;2023-04-16T18:01:00;27.13;;;21.93;;
12222;SDS011;6174;49.058;8.524;2023-04-16T18:03:28;23.27;;;19.50;;
12222;SDS011;6174;49.058;8.524;2023-04-16T18:05:54;22.10;;;19.70;;
12222;SDS011;6174;49.058;8.524;2023-04-16T18:08:21;24.63;;;21.10;;
12222;SDS011;6174;49.058;8.524;2023-04-16T18:10:50;25.97;;;19.90;;
12222;SDS011;6174;49.058;8.524;2023-04-16T18:13:19;26.33;;;20.63;;
12222;SDS011;6174;49.058;8.524;2023-04-16T18:15:45;23.53;;;20.37;;
12222;SDS011;6174;49.058;8.524;2023-04-16T18:18:12;23.83;;;20.67;;
12222;SDS011;6174;49.058;8.524;2023-04-16T18:20:39;26.57;;;22.33;;
12222;SDS011;6174;49.058;8.524;2023-04-16T18:23:06;26.80;;;21.73;;
12222;SDS011;6174;49.058;8.524;2023-04-16T18:25:33;27.00;;;21.60;;
12222;SDS011;6174;49.058;8.524;2023-04-16T18:28:01;26.90;;;23.97;;
12222;SDS011;6174;49.058;8.524;2023-04-16T18:30:30;28.30;;;24.17;;
12222;SDS011;6174;49.058;8.524;2023-04-16T18:32:56;31.10;;;24.00;;
12222;SDS011;6174;49.058;8.524;2023-04-16T18:35:23;28.87;;;24.90;;
12222;SDS011;6174;49.058;8.524;2023-04-16T18:37:50;28.97;;;24.93;;
12222;SDS011;6174;49.058;8.524;2023-04-16T18:40:17;29.07;;;24.27;;
12222;SDS011;6174;49.058;8.524;2023-04-16T18:42:44;27.33;;;22.80;;
12222;SDS011;6174;49.058;8.524;2023-04-16T18:45:12;29.20;;;23.80;;
12222;SDS011;6174;49.058;8.524;2023-04-16T18:47:39;31.50;;;24.70;;
12222;SDS011;6174;49.058;8.524;2023-04-16T18:50:06;29.40;;;24.03;;
12222;SDS011;6174;49.058;8.524;2023-04-16T18:52:33;31.13;;;24.37;;
12222;SDS011;6174;49.058;8.524;2023-04-16T18:55:01;28.67;;;25.03;;
12222;SDS011;6174;49.058;8.524;2023-04-16T18:57:28;32.73;;;25.90;;
12222;SDS011;6174;49.058;8.524;2023-04-16T18:59:54;32.30;;;26.23;;
12222;SDS011;6174;49.058;8.524;2023-04-16T19:02:22;29.40;;;26.03;;
12222;SDS011;6174;49.058;8.524;2023-04-16T19:04:49;31.60;;;26.07;;
12222;SDS011;6174;49.058;8.524;2023-04-16T19:07:16;29.43;;;25.50;;
12222;SDS011;6174;49.058;8.524;2023-04-16T19:09:43;30.67;;;26.50;;
12222;SDS011;6174;49.058;8.524;2023-04-16T19:12:09;28.00;;;24.60;;
12222;SDS011;6174;49.058;8.524;2023-04-16T19:14:36;29.20;;;24.80;;
12222;SDS011;6174;49.058;8.524;2023-04-16T19:17:03;31.40;;;25.00;;
12222;SDS011;6174;49.058;8.524;2023-04-16T19:19:31;31.33;;;25.17;;
12222;SDS011;6174;49.058;8.524;2023-04-16T19:21:58;30.67;;;27.30;;
12222;SDS011;6174;49.058;8.524;2023-04-16T19:24:24;35.17;;;26.33;;
12222;SDS011;6174;49.058;8.524;2023-04-16T19:26:51;29.90;;;26.23;;
12222;SDS011;6174;49.058;8.524;2023-04-16T19:29:18;31.33;;;25.97;;
12222;SDS011;6174;49.058;8.524;2023-04-16T19:31:45;32.33;;;26.83;;
12222;SDS011;6174;49.058;8.524;2023-04-16T19:34:12;33.30;;;26.73;;
12222;SDS011;6174;49.058;8.524;2023-04-16T19:36:40;32.60;;;27.37;;
12222;SDS011;6174;49.058;8.524;2023-04-16T19:39:08;32.23;;;27.10;;
12222;SDS011;6174;49.058;8.524;2023-04-16T19:41:35;32.53;;;26.60;;
12222;SDS011;6174;49.058;8.524;2023-04-16T19:44:02;30.87;;;25.77;;
12222;SDS011;6174;49.058;8.524;2023-04-16T19:46:29;30.03;;;25.43;;
12222;SDS011;6174;49.058;8.524;2023-04-16T19:48:56;30.30;;;26.23;;
12222;SDS011;6174;49.058;8.524;2023-04-16T19:51:23;29.77;;;25.53;;
12222;SDS011;6174;49.058;8.524;2023-04-16T19:53:52;30.33;;;24.23;;
12222;SDS011;6174;49.058;8.524;2023-04-16T19:56:19;29.43;;;25.00;;
12222;SDS011;6174;49.058;8.524;2023-04-16T19:58:46;31.33;;;24.90;;
12222;SDS011;6174;49.058;8.524;2023-04-16T20:01:13;32.33;;;24.63;;
12222;SDS011;6174;49.058;8.524;2023-04-16T20:03:40;28.63;;;23.70;;
12222;SDS011;6174;49.058;8.524;2023-04-16T20:06:06;27.20;;;22.97;;
12222;SDS011;6174;49.058;8.524;2023-04-16T20:08:33;27.90;;;22.77;;
12222;SDS011;6174;49.058;8.524;2023-04-16T20:11:01;27.90;;;23.10;;
12222;SDS011;6174;49.058;8.524;2023-04-16T20:13:28;29.30;;;22.87;;
12222;SDS011;6174;49.058;8.524;2023-04-16T20:15:55;26.90;;;22.17;;
12222;SDS011;6174;49.058;8.524;2023-04-16T20:18:22;28.17;;;23.10;;
12222;SDS011;6174;49.058;8.524;2023-04-16T20:20:50;26.30;;;22.53;;
12222;SDS011;6174;49.058;8.524;2023-04-16T20:23:16;27.60;;;22.87;;
12222;SDS011;6174;49.058;8.524;2023-04-16T20:25:43;26.03;;;22.20;;
12222;SDS011;6174;49.058;8.524;2023-04-16T20:28:12;25.53;;;21.77;;
12222;SDS011;6174;49.058;8.524;2023-04-16T20:30:40;28.00;;;22.27;;
12222;SDS011;6174;49.058;8.524;2023-04-16T20:33:07;27.37;;;22.33;;
12222;SDS011;6174;49.058;8.524;2023-04-16T20:35:34;26.97;;;21.33;;
12222;SDS011;6174;49.058;8.524;2023-04-16T20:38:01;27.90;;;21.80;;
12222;SDS011;6174;49.058;8.524;2023-04-16T20:40:27;28.10;;;23.13;;
12222;SDS011;6174;49.058;8.524;2023-04-16T20:42:55;30.50;;;26.00;;
12222;SDS011;6174;49.058;8.524;2023-04-16T20:45:25;31.23;;;24.33;;
12222;SDS011;6174;49.058;8.524;2023-04-16T20:47:56;27.60;;;22.43;;
12222;SDS011;6174;49.058;8.524;2023-04-16T20:50:23;25.93;;;21.80;;